This is the latest recevied weather packets stored in our database for station/object F5IOR-13. If no packets are shown the sender has not sent any weather packets the latest 10 day(s).
| Time | Temp. | Humidity | Pressure | Rain* | Wind** | Luminosity | Snow |
|---|---|---|---|---|---|---|---|
| 1777707985 | 16.11° C | 56% | 992.5 hPa | 0 mm | - | - | - |
| 1777707865 | 16.11° C | 56% | 992.5 hPa | 0 mm | - | - | - |
| 1777707745 | 16.11° C | 56% | 992.5 hPa | 0 mm | - | - | - |
| 1777707625 | 16.11° C | 56% | 992.5 hPa | 0 mm | - | - | - |
| 1777707505 | 16.11° C | 56% | 992.5 hPa | 0 mm | - | - | - |
| 1777707445 | 16.11° C | 56% | 992.5 hPa | 0 mm | - | - | - |
| 1777707385 | 16.11° C | 56% | 992.5 hPa | 0 mm | - | - | - |
| 1777707325 | 16.11° C | 56% | 992.5 hPa | 0 mm | - | - | - |
| 1777662509 | 19.44° C | 66% | 992 hPa | 0 mm | - | - | - |
| 1777660709 | 21.11° C | 60% | 991.7 hPa | 0 mm | - | - | - |
| 1777658909 | 21.67° C | 56% | 991.6 hPa | 0 mm | - | - | - |
| 1777657109 | 22.22° C | 53% | 991.7 hPa | 0 mm | - | - | - |
| 1777655310 | 22.78° C | 50% | 991.9 hPa | 0 mm | - | - | - |
| 1777653509 | 22.22° C | 51% | 993 hPa | 0 mm | - | - | - |
| 1777651709 | 22.78° C | 45% | 993.1 hPa | 0.25 mm | - | - | - |
| 1777649909 | 23.33° C | 45% | 993.1 hPa | 0.25 mm | - | - | - |
| 1777648109 | 23.89° C | 44% | 993.1 hPa | 0.25 mm | - | - | - |
| 1777646309 | 23.89° C | 42% | 993.2 hPa | 0.25 mm | - | - | - |
| 1777644509 | 23.89° C | 42% | 993.4 hPa | 0.25 mm | - | - | - |
| 1777642709 | 22.78° C | 50% | 993.8 hPa | 0.25 mm | - | - | - |
| 1777640909 | 22.78° C | 48% | 994 hPa | 0 mm | - | - | - |
| 1777639109 | 22.78° C | 48% | 994.2 hPa | 0 mm | - | - | - |
| 1777637309 | 22.78° C | 50% | 994.5 hPa | 0 mm | - | - | - |
| 1777635509 | 22.22° C | 51% | 994.7 hPa | 0 mm | - | - | - |
| 1777633710 | 21.67° C | 54% | 995 hPa | 0 mm | - | - | - |
* Rain latest hour (hover to see other rain measurements)
** Current wind speed in m/s (hover to see current wind gust speed)